METAR Data
IDs: Format: Raw Decoded Include TAF

Data at: 1734 UTC 16 Oct 2021

KMRJ 161715Z AUTO 30013G22KT 10SM CLR 13/00 A3006 RMK AO2